Time;durP1;ratioP1;P1;durP2;ratioP2;P2;SDS_P1;SDS_P2;PMS_P1;PMS_P2;Temp;Humidity;BMP_temperature;BMP_pressure;BME280_temperature;BME280_humidity;BME280_pressure;Samples;Min_cycle;Max_cycle;Signal;HPM_P1;HPM_P2
2022/01/29 00:00:37;;;;;;;11.88;5.10;;;2.90;74.70;;;1.07;81.42;97579.59;4933068;28;20051;-65
2022/01/29 00:03:03;;;;;;;8.60;4.95;;;3.00;74.50;;;1.04;81.60;97566.81;4932709;28;20621;-65
2022/01/29 00:05:29;;;;;;;11.13;4.72;;;3.00;74.80;;;1.03;81.28;97554.78;4931818;28;20062;-65
2022/01/29 00:07:55;;;;;;;11.00;5.32;;;3.00;74.60;;;1.04;81.18;97553.88;4917633;29;20027;-65
2022/01/29 00:10:20;;;;;;;9.90;5.10;;;3.00;74.60;;;1.05;81.15;97549.50;4962068;28;20139;-65
2022/01/29 00:12:47;;;;;;;8.52;5.20;;;3.00;74.60;;;1.04;81.21;97555.63;4937813;29;20126;-65
2022/01/29 00:15:12;;;;;;;9.50;5.00;;;2.90;74.80;;;1.02;81.90;97553.13;4959024;28;20039;-65
2022/01/29 00:17:38;;;;;;;12.93;5.25;;;2.90;74.70;;;1.02;81.46;97547.13;4964632;28;20487;-65
2022/01/29 00:20:06;;;;;;;13.32;5.25;;;2.80;74.60;;;0.99;81.68;97535.19;4934243;28;20067;-62
2022/01/29 00:22:32;;;;;;;10.63;5.47;;;2.90;74.80;;;1.00;81.63;97534.25;4917578;29;20062;-62
2022/01/29 00:24:58;;;;;;;10.48;5.00;;;2.90;74.70;;;0.99;81.67;97527.41;4916455;29;20035;-62
2022/01/29 00:27:27;;;;;;;9.02;5.40;;;2.90;74.60;;;0.99;81.56;97537.78;4900986;28;20094;-62
2022/01/29 00:29:54;;;;;;;10.05;5.07;;;2.90;74.50;;;1.01;81.99;97530.75;4933114;28;20047;-62
2022/01/29 00:32:19;;;;;;;11.50;5.20;;;2.90;74.50;;;1.00;81.62;97518.72;4917456;29;20118;-62
2022/01/29 00:34:45;;;;;;;9.65;5.18;;;2.90;74.50;;;1.01;81.61;97510.00;4948134;28;20038;-62
2022/01/29 00:37:11;;;;;;;10.48;6.13;;;2.90;74.20;;;0.99;81.32;97509.28;4965145;28;20035;-62
2022/01/29 00:39:37;;;;;;;10.73;5.28;;;2.80;74.60;;;1.00;81.48;97497.16;4932061;28;20487;-62
2022/01/29 00:42:04;;;;;;;11.25;5.30;;;2.80;74.60;;;0.97;81.48;97508.53;4933190;28;20090;-62
2022/01/29 00:44:30;;;;;;;9.02;5.57;;;2.80;74.70;;;0.97;81.68;97499.94;4900443;28;20037;-62
2022/01/29 00:46:55;;;;;;;8.75;5.55;;;2.80;74.60;;;0.96;81.04;97500.88;4916955;29;20122;-62
2022/01/29 00:49:21;;;;;;;11.63;5.90;;;2.80;74.50;;;0.94;81.75;97503.56;4916064;28;20098;-62
2022/01/29 00:51:47;;;;;;;10.95;5.90;;;2.80;74.50;;;0.94;81.35;97503.56;4945838;28;20070;-62
2022/01/29 00:54:13;;;;;;;11.88;5.25;;;2.80;74.20;;;0.95;80.88;97499.22;4964453;28;20055;-62
2022/01/29 00:56:39;;;;;;;12.93;5.63;;;2.80;74.40;;;0.95;81.16;97500.03;4948655;28;20039;-62
2022/01/29 00:59:05;;;;;;;9.82;5.38;;;2.90;74.20;;;0.92;81.41;97492.47;4899562;29;20066;-62
2022/01/29 01:01:31;;;;;;;11.23;5.22;;;2.80;74.30;;;0.90;81.61;97491.69;4925975;28;20491;-62
2022/01/29 01:03:57;;;;;;;9.32;5.30;;;2.80;74.30;;;0.88;81.20;97484.03;4948016;28;20591;-62
2022/01/29 01:06:23;;;;;;;9.45;5.35;;;2.80;74.40;;;0.86;81.09;97480.69;4913214;29;20030;-63
2022/01/29 01:08:49;;;;;;;10.48;5.60;;;2.70;74.50;;;0.84;81.23;97474.78;4932830;28;20039;-62
2022/01/29 01:11:14;;;;;;;9.63;4.80;;;2.70;74.70;;;0.85;80.85;97471.25;4948922;28;20039;-62
2022/01/29 01:13:40;;;;;;;10.85;5.45;;;2.70;74.50;;;0.86;81.54;97474.69;4948422;28;20042;-62
2022/01/29 01:16:06;;;;;;;10.05;5.10;;;2.70;74.40;;;0.84;81.62;97471.34;4916700;28;20425;-62
2022/01/29 01:18:32;;;;;;;9.65;5.88;;;2.70;74.80;;;0.84;81.09;97466.19;4949390;28;20538;-62
2022/01/29 01:20:57;;;;;;;12.50;6.00;;;2.80;74.80;;;0.84;81.26;97468.78;4952164;28;20027;-62
2022/01/29 01:23:23;;;;;;;11.65;5.97;;;2.70;74.60;;;0.83;81.77;97465.34;4951320;28;20047;-62
2022/01/29 01:25:49;;;;;;;8.40;5.25;;;2.70;74.70;;;0.82;81.30;97458.50;4919886;29;20105;-62
2022/01/29 01:28:14;;;;;;;10.05;5.57;;;2.70;74.80;;;0.80;81.25;97439.63;4904356;29;20031;-62
2022/01/29 01:30:41;;;;;;;13.05;5.15;;;2.70;74.80;;;0.79;81.81;97442.31;4920119;28;20408;-62
2022/01/29 01:33:06;;;;;;;10.07;6.22;;;2.70;74.80;;;0.77;82.00;97439.00;4952216;28;20034;-62
2022/01/29 01:35:54;;;;;;;11.70;6.07;;;2.70;74.90;;;0.78;81.82;97441.50;4949460;28;20415;-62
2022/01/29 01:38:45;;;;;;;10.82;5.60;;;2.70;74.90;;;0.78;82.35;97425.13;4951594;28;20042;-62
2022/01/29 01:41:13;;;;;;;11.20;5.95;;;2.70;75.00;;;0.81;82.16;97424.94;4939239;28;20054;-62
2022/01/29 01:43:39;;;;;;;12.52;5.95;;;2.70;74.80;;;0.80;82.18;97418.09;4952200;28;20396;-62
2022/01/29 01:46:04;;;;;;;10.23;5.60;;;2.70;74.70;;;0.80;82.35;97416.34;4935100;28;20042;-62
2022/01/29 01:48:30;;;;;;;10.73;5.88;;;2.70;74.70;;;0.83;81.92;97415.31;4950992;28;20071;-62
2022/01/29 01:50:57;;;;;;;11.43;6.05;;;2.80;74.60;;;0.83;81.92;97402.34;4935970;28;20217;-62
2022/01/29 01:53:23;;;;;;;11.40;6.40;;;2.70;74.20;;;0.82;81.80;97405.88;4919138;28;20125;-63
2022/01/29 01:55:48;;;;;;;11.57;5.80;;;2.70;74.60;;;0.83;81.88;97404.94;4941967;28;20519;-62
2022/01/29 01:58:15;;;;;;;10.50;6.03;;;2.80;74.50;;;0.84;81.38;97406.59;4935707;28;20094;-63
2022/01/29 02:00:43;;;;;;;9.77;5.68;;;2.80;74.30;;;0.84;81.93;97410.03;4964015;28;20516;-62
2022/01/29 02:03:09;;;;;;;12.02;5.50;;;2.80;74.40;;;0.86;81.86;97402.16;4965899;28;20054;-62
2022/01/29 02:05:35;;;;;;;12.52;6.05;;;2.80;74.30;;;0.86;82.05;97402.16;4933873;28;20067;-62
2022/01/29 02:08:02;;;;;;;12.82;5.82;;;2.80;74.40;;;0.84;81.22;97399.66;4935017;28;20034;-62
2022/01/29 02:10:28;;;;;;;9.90;5.88;;;2.70;74.20;;;0.84;81.36;97393.66;4919654;29;20062;-62
2022/01/29 02:12:58;;;;;;;10.32;5.68;;;2.70;74.50;;;0.84;81.33;97383.28;4920029;29;20098;-62
2022/01/29 02:15:24;;;;;;;12.35;6.50;;;2.70;74.60;;;0.86;81.30;97381.44;4949886;28;20024;-62
2022/01/29 02:17:50;;;;;;;9.95;5.93;;;2.80;74.50;;;0.85;82.17;97375.41;4919466;29;20050;-62
2022/01/29 02:20:22;;;;;;;14.68;5.65;;;2.70;74.20;;;0.86;81.65;97365.88;4931979;28;20559;-62
2022/01/29 02:22:47;;;;;;;11.75;5.72;;;2.80;74.40;;;0.84;81.66;97367.75;4952357;28;20050;-62
2022/01/29 02:25:32;;;;;;;10.50;5.85;;;2.70;74.40;;;0.87;81.81;97376.16;4922471;29;20031;-62
2022/01/29 02:28:00;;;;;;;10.40;5.85;;;2.80;74.30;;;0.86;81.71;97378.84;4947716;28;20098;-62
2022/01/29 02:30:28;;;;;;;10.07;6.35;;;2.80;74.40;;;0.87;81.41;97370.97;4927299;29;20039;-62
2022/01/29 02:32:55;;;;;;;10.68;5.93;;;2.80;74.20;;;0.87;81.25;97357.19;4965588;28;20216;-62
2022/01/29 02:35:21;;;;;;;11.13;5.93;;;2.80;74.30;;;0.88;81.63;97353.66;4941829;28;20220;-62
2022/01/29 02:37:51;;;;;;;10.23;5.75;;;2.90;74.10;;;0.88;81.01;97357.09;4933061;29;20051;-62
2022/01/29 02:40:18;;;;;;;8.95;5.57;;;2.90;74.00;;;0.88;81.75;97361.44;4947363;28;20039;-62
2022/01/29 02:42:44;;;;;;;11.07;6.40;;;2.80;74.10;;;0.89;82.15;97360.50;4948403;28;20063;-62
2022/01/29 02:45:09;;;;;;;10.27;5.20;;;2.90;74.10;;;0.89;81.09;97361.34;4952768;28;20471;-62
2022/01/29 02:47:35;;;;;;;11.68;5.70;;;2.80;74.00;;;0.89;81.70;97360.50;4933970;28;20039;-62
2022/01/29 02:50:03;;;;;;;11.18;6.22;;;2.80;74.10;;;0.87;81.70;97352.00;4934365;28;20043;-62
2022/01/29 02:52:28;;;;;;;9.82;5.85;;;2.70;74.00;;;0.87;81.64;97363.19;4934479;28;20134;-62
2022/01/29 02:54:54;;;;;;;13.90;6.05;;;2.80;74.30;;;0.86;81.10;97361.53;4962674;28;20047;-62
2022/01/29 02:57:20;;;;;;;13.32;6.40;;;2.80;74.10;;;0.88;81.21;97367.44;4947320;28;20044;-62
2022/01/29 02:59:45;;;;;;;10.82;5.75;;;2.80;74.00;;;0.87;81.42;97358.03;4966573;28;20455;-62
2022/01/29 03:02:11;;;;;;;10.93;6.30;;;2.70;74.00;;;0.85;81.53;97349.53;4930694;29;20515;-62
2022/01/29 03:04:37;;;;;;;9.57;5.47;;;2.70;74.30;;;0.84;81.19;97327.13;4933883;28;20062;-62
2022/01/29 03:07:03;;;;;;;8.95;5.43;;;2.70;74.30;;;0.84;81.57;97342.69;4934736;29;20032;-62
2022/01/29 03:09:28;;;;;;;11.63;5.60;;;2.70;74.30;;;0.83;80.88;97335.84;4933330;28;20558;-61
2022/01/29 03:11:56;;;;;;;11.25;5.75;;;2.70;74.20;;;0.81;81.91;97336.88;4950414;28;20036;-62
2022/01/29 03:14:22;;;;;;;12.85;6.50;;;2.60;74.40;;;0.80;81.58;97335.22;4933797;28;20036;-63
2022/01/29 03:16:47;;;;;;;12.02;5.93;;;2.60;74.30;;;0.78;81.55;97322.38;4950037;28;20038;-63
2022/01/29 03:19:13;;;;;;;11.80;6.05;;;2.60;74.50;;;0.77;82.06;97325.06;4950949;28;20063;-62
2022/01/29 03:21:39;;;;;;;9.50;5.50;;;2.70;74.60;;;0.76;81.28;97315.63;4949289;28;20043;-63
2022/01/29 03:24:05;;;;;;;11.50;5.78;;;2.60;74.70;;;0.74;81.95;97314.88;4919772;29;20126;-61
2022/01/29 03:26:31;;;;;;;12.88;6.05;;;2.60;74.90;;;0.74;81.33;97304.53;4950269;28;20042;-61
2022/01/29 03:28:57;;;;;;;13.80;5.90;;;2.60;74.60;;;0.73;81.68;97303.69;4949870;28;20449;-61
2022/01/29 03:31:26;;;;;;;10.93;5.68;;;2.60;74.60;;;0.70;81.19;97296.13;4915699;28;20102;-62
2022/01/29 03:33:52;;;;;;;9.32;5.88;;;2.60;74.70;;;0.67;81.68;97303.25;4965300;28;20035;-61
2022/01/29 03:36:18;;;;;;;11.30;6.68;;;2.50;74.80;;;0.64;81.29;97291.34;4917477;29;20039;-61
2022/01/29 03:38:44;;;;;;;11.55;6.28;;;2.50;74.90;;;0.60;81.79;97298.47;4917963;29;20326;-61
2022/01/29 03:41:12;;;;;;;11.73;6.00;;;2.40;75.20;;;0.59;82.07;97289.03;4949225;28;20066;-61
2022/01/29 03:43:45;;;;;;;13.23;5.78;;;2.40;75.10;;;0.60;82.17;97290.69;4949008;28;20043;-62
2022/01/29 03:46:11;;;;;;;19.50;10.85;;;2.50;75.20;;;0.61;82.08;97288.94;4934324;28;20039;-61
2022/01/29 03:48:36;;;;;;;27.52;16.52;;;2.60;75.40;;;0.65;83.38;97286.97;4932696;28;20099;-62
2022/01/29 03:51:02;;;;;;;13.50;8.27;;;2.70;76.60;;;0.68;82.80;97281.59;4917731;29;20040;-62
2022/01/29 03:53:28;;;;;;;11.88;6.10;;;2.70;75.30;;;0.66;82.39;97280.88;4932972;28;20035;-63
2022/01/29 03:55:53;;;;;;;9.90;5.78;;;2.60;74.70;;;0.68;81.92;97279.00;4933152;28;20047;-62
2022/01/29 03:58:19;;;;;;;10.77;6.20;;;2.60;74.80;;;0.65;81.67;97274.03;4933091;28;20455;-61
2022/01/29 04:00:45;;;;;;;9.68;5.03;;;2.60;75.00;;;0.65;82.18;97279.22;4933348;28;20098;-61
2022/01/29 04:03:11;;;;;;;7.57;5.22;;;2.60;74.80;;;0.63;82.77;97275.91;4932711;28;20051;-62
2022/01/29 04:05:36;;;;;;;12.70;5.28;;;2.50;75.10;;;0.65;81.88;97281.81;4948029;28;20502;-61
2022/01/29 04:08:06;;;;;;;11.43;6.20;;;2.60;74.80;;;0.66;82.20;97270.50;4917401;29;20031;-61
2022/01/29 04:10:32;;;;;;;9.07;5.72;;;2.60;74.70;;;0.66;81.72;97257.56;4933490;28;20091;-61
2022/01/29 04:12:58;;;;;;;12.95;8.30;;;2.60;74.70;;;0.68;82.68;97260.88;4917508;29;20043;-62
2022/01/29 04:15:24;;;;;;;12.63;6.88;;;2.70;74.80;;;0.70;82.39;97266.81;4961017;28;20566;-62
2022/01/29 04:17:49;;;;;;;14.98;7.28;;;2.60;74.70;;;0.69;81.46;97257.41;4946235;28;20031;-61
2022/01/29 04:20:15;;;;;;;14.35;8.20;;;2.70;74.60;;;0.70;82.57;97256.47;4948168;28;20095;-61
2022/01/29 04:22:41;;;;;;;15.30;7.57;;;2.70;74.60;;;0.72;82.17;97255.44;4933169;28;20066;-62
2022/01/29 04:25:07;;;;;;;11.30;6.35;;;2.70;74.40;;;0.72;81.79;97254.59;4933036;28;20085;-61
2022/01/29 04:27:38;;;;;;;8.05;5.70;;;2.60;74.40;;;0.71;81.81;97247.75;4932138;28;20135;-61
2022/01/29 04:30:10;;;;;;;10.48;5.75;;;2.60;74.70;;;0.71;81.90;97247.75;4918680;29;20052;-62
2022/01/29 04:35:13;;;;;;;13.00;6.00;;;2.70;74.60;;;0.73;81.63;97244.13;4933729;28;20070;-65
2022/01/29 04:37:39;;;;;;;9.00;5.70;;;2.70;74.50;;;0.72;82.13;97241.66;4944603;28;20676;-64
2022/01/29 04:40:05;;;;;;;10.65;6.00;;;2.70;74.50;;;0.73;82.19;97246.72;4898011;29;20535;-66
2022/01/29 04:42:31;;;;;;;9.10;4.90;;;2.60;74.50;;;0.75;82.33;97254.41;4958723;28;20052;-66
2022/01/29 04:44:57;;;;;;;10.57;5.35;;;2.70;74.40;;;0.74;81.67;97250.97;4964328;28;20118;-65
2022/01/29 04:47:22;;;;;;;12.50;5.35;;;2.70;74.40;;;0.74;81.51;97250.16;4934069;28;20062;-61
2022/01/29 04:49:48;;;;;;;12.88;5.72;;;2.60;74.50;;;0.74;82.00;97242.38;4927764;28;20039;-61
2022/01/29 04:52:14;;;;;;;9.02;4.70;;;2.70;74.30;;;0.74;82.04;97243.22;4936265;28;20069;-61
2022/01/29 04:54:40;;;;;;;12.88;5.80;;;2.70;74.30;;;0.75;81.58;97246.63;4942623;28;20043;-61
2022/01/29 04:57:05;;;;;;;12.15;5.60;;;2.70;74.40;;;0.75;81.20;97244.88;4923400;28;20088;-61
2022/01/29 04:59:31;;;;;;;9.70;4.95;;;2.70;74.40;;;0.75;81.69;97236.28;4939749;28;20043;-61
2022/01/29 05:01:57;;;;;;;11.43;5.40;;;2.70;74.40;;;0.75;81.61;97238.84;4936502;28;20039;-61
2022/01/29 05:04:23;;;;;;;9.98;5.35;;;2.70;74.40;;;0.75;81.70;97244.03;4936068;28;20027;-61
2022/01/29 05:06:48;;;;;;;9.88;5.25;;;2.70;74.10;;;0.74;81.89;97240.63;4936336;28;20114;-62
2022/01/29 05:09:14;;;;;;;10.25;5.53;;;2.70;74.30;;;0.73;81.92;97244.13;4954115;28;20082;-62
2022/01/29 05:11:44;;;;;;;8.40;5.22;;;2.70;74.10;;;0.74;81.89;97242.38;4947614;28;20042;-62
2022/01/29 05:14:17;;;;;;;9.05;4.65;;;2.70;74.30;;;0.73;81.47;97240.72;4936718;28;20092;-62
2022/01/29 05:17:18;;;;;;;9.98;4.93;;;2.70;74.20;;;0.69;81.92;97234.91;4945029;28;20047;-62
2022/01/29 05:27:42;;;;;;;11.57;5.75;;;2.50;75.00;;;0.55;81.80;97222.03;4938336;28;20043;-66
2022/01/29 05:30:08;;;;;;;9.07;5.38;;;2.40;75.20;;;0.51;81.86;97225.75;4951887;28;20407;-66
2022/01/29 05:32:34;;;;;;;13.05;5.38;;;2.40;75.30;;;0.47;82.26;97219.13;4951465;28;20043;-69
2022/01/29 05:34:59;;;;;;;6.75;4.40;;;2.30;75.50;;;0.43;81.95;97221.06;4952265;28;20098;-68
2022/01/29 05:37:25;;;;;;;10.45;4.90;;;2.30;75.80;;;0.44;81.69;97224.47;4919169;28;20463;-68
2022/01/29 05:39:51;;;;;;;7.32;5.03;;;2.30;75.70;;;0.44;82.93;97220.13;4935782;28;20035;-68
2022/01/29 05:42:16;;;;;;;9.30;5.22;;;2.40;75.60;;;0.44;81.94;97211.53;4935821;28;20054;-67
2022/01/29 05:44:42;;;;;;;10.85;5.03;;;2.30;75.50;;;0.44;82.70;97220.13;4935725;29;20035;-68
2022/01/29 05:47:08;;;;;;;10.75;4.95;;;2.40;75.50;;;0.45;82.88;97216.59;4952035;28;20526;-68
2022/01/29 05:49:34;;;;;;;9.48;4.93;;;2.40;75.40;;;0.48;82.32;97215.59;4935183;28;20043;-67
2022/01/29 05:51:59;;;;;;;8.80;4.68;;;2.50;75.40;;;0.48;82.28;97221.59;4951926;28;20059;-68
2022/01/29 05:54:25;;;;;;;8.00;4.85;;;2.50;75.30;;;0.51;82.23;97213.63;4935481;28;20035;-68
2022/01/29 05:56:51;;;;;;;11.65;5.38;;;2.60;75.40;;;0.52;82.96;97217.88;4951533;28;20031;-68
2022/01/29 05:59:17;;;;;;;8.32;4.93;;;2.60;75.30;;;0.53;82.98;97218.72;4919783;29;20086;-68
2022/01/29 06:01:42;;;;;;;10.38;4.78;;;2.60;75.30;;;0.55;82.50;97228.03;4916275;28;20039;-68
2022/01/29 06:04:08;;;;;;;8.82;4.97;;;2.60;75.20;;;0.55;82.17;97225.44;4916003;29;20063;-68
2022/01/29 06:06:34;;;;;;;11.48;6.03;;;2.50;75.50;;;0.56;83.18;97224.53;4934346;28;20079;-68
2022/01/29 06:09:04;;;;;;;14.77;7.10;;;2.60;75.80;;;0.59;82.30;97213.97;4932589;28;20414;-68
2022/01/29 06:11:31;;;;;;;23.23;10.85;;;2.60;75.50;;;0.63;82.87;97218.94;4933061;28;20047;-68
2022/01/29 06:13:57;;;;;;;8.38;5.38;;;2.60;75.60;;;0.64;83.24;97215.41;4916911;28;20027;-68
2022/01/29 06:16:23;;;;;;;11.80;5.72;;;2.60;75.20;;;0.61;83.58;97217.28;4932979;28;20073;-68
2022/01/29 06:18:48;;;;;;;10.90;6.00;;;2.60;75.30;;;0.62;83.04;97215.50;4951440;28;20070;-68
2022/01/29 06:21:15;;;;;;;12.18;6.13;;;2.60;75.60;;;0.60;82.85;97210.44;4933199;28;20027;-68
2022/01/29 06:23:41;;;;;;;14.30;5.93;;;2.60;75.50;;;0.59;82.77;97213.13;4926885;28;20097;-68
2022/01/29 06:26:09;;;;;;;10.20;5.78;;;2.50;75.90;;;0.60;82.81;97209.59;4938350;28;20035;-68
2022/01/29 06:28:35;;;;;;;10.75;6.40;;;2.60;76.00;;;0.60;82.88;97217.38;4930600;28;20035;-68
2022/01/29 06:31:02;;;;;;;12.00;6.30;;;2.50;76.20;;;0.59;83.07;97208.78;4919056;29;20039;-68
2022/01/29 06:33:27;;;;;;;9.57;5.70;;;2.60;76.20;;;0.61;83.16;97211.28;4917459;28;20032;-67
2022/01/29 06:35:53;;;;;;;14.85;8.20;;;2.60;76.00;;;0.63;83.36;97216.34;4934798;28;20461;-68
2022/01/29 06:38:19;;;;;;;14.45;8.63;;;2.70;76.50;;;0.68;83.50;97214.28;4934943;28;20574;-68
2022/01/29 06:40:44;;;;;;;14.50;7.35;;;2.70;76.30;;;0.71;83.69;97219.28;4903613;29;20040;-68
2022/01/29 06:43:10;;;;;;;14.75;8.15;;;2.80;75.90;;;0.71;83.27;97227.06;4951157;28;20035;-68
2022/01/29 06:45:38;;;;;;;17.92;11.38;;;2.70;75.70;;;0.74;83.41;97224.25;4918012;28;20471;-68
2022/01/29 06:48:04;;;;;;;16.98;12.27;;;2.70;75.70;;;0.77;83.39;97213.69;4935022;28;20062;-68
2022/01/29 06:50:30;;;;;;;13.75;8.45;;;2.90;75.50;;;0.78;83.54;97213.59;4918746;29;20566;-68
2022/01/29 06:52:56;;;;;;;9.20;6.38;;;2.80;75.20;;;0.79;83.42;97209.25;4919415;29;20054;-68
2022/01/29 06:55:21;;;;;;;9.98;6.80;;;2.80;75.30;;;0.80;83.01;97203.13;4949915;28;20036;-69
2022/01/29 06:57:47;;;;;;;12.10;7.43;;;2.80;75.30;;;0.82;83.14;97199.50;4934750;28;20039;-68
2022/01/29 07:00:14;;;;;;;10.85;6.38;;;2.80;75.10;;;0.82;83.07;97194.31;4935410;28;20073;-68
2022/01/29 07:02:39;;;;;;;10.00;6.32;;;2.80;75.00;;;0.82;83.28;97177.94;4934180;28;20418;-68
2022/01/29 07:05:07;;;;;;;14.40;6.78;;;2.70;74.80;;;0.83;83.18;97174.44;4934487;28;20051;-68
2022/01/29 07:07:32;;;;;;;10.98;6.18;;;2.70;75.00;;;0.82;83.03;97170.19;4933737;28;20399;-68
2022/01/29 07:09:58;;;;;;;10.07;6.15;;;2.70;75.00;;;0.82;82.70;97157.22;4951825;28;20043;-67
2022/01/29 07:12:25;;;;;;;11.52;6.25;;;2.70;75.00;;;0.83;82.66;97174.44;4934038;28;20083;-68
2022/01/29 07:14:50;;;;;;;8.98;6.05;;;2.80;75.00;;;0.86;82.98;97175.03;4917113;28;20292;-68
2022/01/29 07:17:17;;;;;;;9.77;6.45;;;2.90;74.70;;;0.90;82.95;97168.72;4917684;28;20130;-68
2022/01/29 07:19:44;;;;;;;11.88;6.35;;;2.90;74.50;;;0.93;82.90;97161.72;4918000;28;20167;-68
2022/01/29 07:22:10;;;;;;;10.50;6.63;;;3.00;74.20;;;0.97;82.40;97170.94;4918261;29;20521;-67
2022/01/29 07:24:36;;;;;;;12.43;7.70;;;3.10;73.90;;;1.00;82.62;97171.53;4918051;28;20042;-67
2022/01/29 07:27:03;;;;;;;11.73;7.03;;;3.10;73.70;;;1.02;82.16;97180.03;4918428;29;20039;-67
2022/01/29 07:29:28;;;;;;;10.95;6.43;;;3.10;73.80;;;1.04;82.48;97178.16;4933976;28;20404;-68
2022/01/29 07:31:56;;;;;;;10.95;6.63;;;3.10;73.80;;;1.09;82.52;97177.84;4912251;29;20035;-68
2022/01/29 07:34:25;;;;;;;11.90;7.68;;;3.10;73.50;;;1.12;82.36;97183.66;4898452;29;20083;-68
2022/01/29 07:36:51;;;;;;;12.02;6.57;;;3.20;73.50;;;1.16;81.84;97187.72;4956164;28;20519;-68
2022/01/29 07:39:18;;;;;;;10.32;6.85;;;3.20;73.40;;;1.19;82.09;97177.13;4947215;28;20031;-70
2022/01/29 07:41:43;;;;;;;10.85;7.68;;;3.30;73.20;;;1.26;82.24;97171.53;4933348;28;20031;-69
2022/01/29 07:44:09;;;;;;;11.48;6.50;;;3.40;72.90;;;1.30;81.46;97175.56;4946720;28;20102;-69
2022/01/29 07:46:35;;;;;;;10.50;6.00;;;3.40;72.60;;;1.35;81.28;97176.06;4914165;29;20031;-70
2022/01/29 07:49:01;;;;;;;9.65;6.35;;;3.50;72.30;;;1.42;81.76;97182.50;4915750;28;20066;-68
2022/01/29 07:51:26;;;;;;;12.77;7.30;;;3.60;72.20;;;1.46;81.15;97183.94;4944728;28;20057;-68
2022/01/29 07:53:52;;;;;;;11.30;7.13;;;3.60;71.80;;;1.52;81.14;97183.53;4965936;28;20039;-69
2022/01/29 07:56:20;;;;;;;35.22;18.33;;;3.70;71.90;;;1.62;81.54;97181.97;4932653;29;20446;-68
2022/01/29 07:58:47;;;;;;;11.88;8.55;;;3.90;72.90;;;1.68;81.72;97183.28;4949022;28;20101;-64
2022/01/29 08:01:13;;;;;;;13.63;9.40;;;4.00;71.40;;;1.73;80.90;97183.78;4917283;29;20094;-64
2022/01/29 08:03:39;;;;;;;15.45;9.50;;;3.90;71.40;;;1.76;81.19;97179.22;4932409;28;20516;-64
2022/01/29 08:06:05;;;;;;;13.30;9.80;;;4.00;71.50;;;1.82;81.30;97183.16;4948649;28;20071;-64
2022/01/29 08:08:31;;;;;;;11.60;6.82;;;4.00;71.70;;;1.89;81.13;97183.53;4933032;28;20463;-64
2022/01/29 08:10:56;;;;;;;11.77;7.55;;;4.10;71.80;;;1.95;81.07;97183.94;4948809;28;20035;-64
2022/01/29 08:13:22;;;;;;;18.42;11.98;;;4.10;70.80;;;2.02;80.48;97179.13;4932692;28;20090;-67
2022/01/29 08:15:48;;;;;;;10.85;7.90;;;4.20;71.30;;;2.09;79.71;97168.22;4932768;28;20031;-67
2022/01/29 08:18:14;;;;;;;13.35;7.82;;;4.30;70.20;;;2.13;79.98;97154.06;4916498;28;20517;-66
2022/01/29 08:20:39;;;;;;;10.82;7.55;;;4.30;70.00;;;2.18;79.57;97151.13;4940238;28;20193;-67
2022/01/29 08:23:09;;;;;;;12.73;8.38;;;4.40;69.50;;;2.24;79.09;97157.66;4962580;28;20035;-66
2022/01/29 08:25:35;;;;;;;9.75;6.65;;;4.40;69.70;;;2.27;79.26;97152.25;4960571;28;20518;-67
2022/01/29 08:28:01;;;;;;;9.02;6.07;;;4.40;69.40;;;2.32;79.31;97153.56;4936102;28;20419;-67
2022/01/29 08:30:27;;;;;;;10.88;6.72;;;4.60;68.90;;;2.39;79.14;97146.97;4945205;28;20031;-66
2022/01/29 08:32:53;;;;;;;10.43;6.97;;;4.60;68.10;;;2.49;78.27;97143.69;4948858;28;20118;-67
2022/01/29 08:35:18;;;;;;;9.32;5.85;;;4.80;67.70;;;2.58;77.95;97137.84;4955048;28;20055;-68
2022/01/29 08:37:44;;;;;;;9.50;6.20;;;4.90;66.40;;;2.66;77.07;97140.69;4931495;28;20057;-68
2022/01/29 08:40:10;;;;;;;11.50;6.07;;;4.90;65.70;;;2.70;76.58;97131.72;4901230;29;20043;-68
2022/01/29 08:42:36;;;;;;;9.25;6.82;;;4.80;65.70;;;2.78;75.98;97134.59;4916945;29;20039;-69
2022/01/29 08:45:03;;;;;;;10.65;6.00;;;5.00;65.70;;;2.82;76.02;97138.59;4916477;29;20035;-68
2022/01/29 08:47:29;;;;;;;7.53;5.28;;;4.90;65.20;;;2.88;75.70;97138.13;4931726;28;20050;-67
2022/01/29 08:49:55;;;;;;;9.98;5.15;;;4.90;65.70;;;2.96;75.44;97142.75;4932078;28;20055;-65
2022/01/29 08:52:21;;;;;;;10.55;5.00;;;5.10;64.70;;;3.02;75.28;97134.50;4932819;28;20046;-66
2022/01/29 08:54:47;;;;;;;6.97;5.35;;;5.20;64.30;;;3.12;74.31;97119.00;4916007;29;20039;-64
2022/01/29 08:57:12;;;;;;;7.43;4.60;;;5.30;63.60;;;3.20;74.75;97119.28;4932738;28;20062;-65
2022/01/29 08:59:38;;;;;;;9.75;5.50;;;5.30;63.50;;;3.23;73.24;97109.44;4915865;28;20622;-65
2022/01/29 09:02:04;;;;;;;8.55;4.97;;;5.30;62.30;;;3.28;73.34;97114.28;4948807;28;20054;-65
2022/01/29 09:04:30;;;;;;;7.50;4.97;;;5.30;63.10;;;3.32;73.27;97113.09;4916062;29;20105;-65
2022/01/29 09:06:55;;;;;;;8.27;5.30;;;5.30;62.40;;;3.36;72.47;97125.75;4932270;28;20040;-65
2022/01/29 09:09:25;;;;;;;8.02;5.28;;;5.40;62.70;;;3.36;72.34;97119.72;4933571;28;20121;-70
2022/01/29 09:11:51;;;;;;;8.32;5.63;;;5.20;62.40;;;3.38;72.33;97112.63;4933096;28;20425;-68
2022/01/29 09:14:18;;;;;;;8.73;5.40;;;5.20;62.60;;;3.35;71.36;97105.06;4951528;28;20543;-70
2022/01/29 09:16:44;;;;;;;9.38;5.22;;;5.20;62.80;;;3.34;71.80;97108.59;4948764;28;20508;-69
2022/01/29 09:19:09;;;;;;;12.77;8.48;;;5.10;62.80;;;3.36;70.97;97104.94;4916677;28;20122;-68
2022/01/29 09:21:35;;;;;;;12.68;7.53;;;5.20;62.70;;;3.38;71.65;97107.41;4931547;28;20130;-70
2022/01/29 09:24:01;;;;;;;11.80;7.05;;;5.20;62.10;;;3.37;71.61;97095.34;4916745;29;20047;-69
2022/01/29 09:26:27;;;;;;;8.43;5.13;;;5.20;62.10;;;3.40;70.64;97108.16;4931831;28;20032;-65
2022/01/29 09:28:52;;;;;;;7.00;4.93;;;5.20;61.20;;;3.37;70.09;97085.78;4939284;28;20545;-66
2022/01/29 09:31:18;;;;;;;8.23;5.25;;;5.10;61.20;;;3.34;70.14;97077.41;4953797;28;20083;-65
2022/01/29 09:33:44;;;;;;;6.50;4.97;;;5.10;62.10;;;3.35;70.46;97086.84;4963956;28;20032;-65
2022/01/29 09:36:10;;;;;;;10.10;5.13;;;5.10;62.60;;;3.35;70.12;97084.25;4931966;29;20055;-66
2022/01/29 09:38:36;;;;;;;11.57;8.27;;;5.10;61.50;;;3.40;69.76;97087.34;4947845;28;20039;-66
2022/01/29 09:41:02;;;;;;;9.30;5.75;;;5.30;61.80;;;3.48;70.35;97087.56;4951895;28;20507;-67
2022/01/29 09:43:28;;;;;;;7.88;5.63;;;5.50;61.60;;;3.54;69.96;97088.84;4939209;28;20037;-65
2022/01/29 09:45:53;;;;;;;6.80;4.30;;;5.50;61.20;;;3.53;70.14;97101.03;4919833;29;20031;-66
2022/01/29 09:48:23;;;;;;;6.75;4.70;;;5.40;60.90;;;3.51;68.47;97117.69;4903818;29;20041;-66
2022/01/29 09:50:50;;;;;;;8.35;5.05;;;5.20;60.90;;;3.51;69.88;97123.72;4935469;28;20504;-67
2022/01/29 09:53:16;;;;;;;7.53;4.70;;;5.30;61.30;;;3.50;69.84;97137.69;4935878;28;20338;-67
2022/01/29 09:55:43;;;;;;;7.75;5.07;;;5.30;61.70;;;3.50;68.81;97127.28;4919000;28;20470;-66
2022/01/29 09:58:09;;;;;;;7.13;4.60;;;5.30;61.40;;;3.48;69.38;97123.16;4920661;29;20067;-66
2022/01/29 10:00:35;;;;;;;7.32;4.60;;;5.10;61.60;;;3.47;69.12;97129.31;4919565;29;20043;-66
2022/01/29 10:03:10;;;;;;;7.65;5.07;;;5.30;61.30;;;3.48;68.15;97126.56;4936199;28;20114;-66
2022/01/29 10:05:40;;;;;;;8.13;4.93;;;5.40;61.40;;;3.47;68.41;97132.72;4951157;28;20039;-66
2022/01/29 10:08:07;;;;;;;7.95;5.07;;;5.20;61.50;;;3.44;68.72;97132.13;4935801;28;20514;-66
2022/01/29 10:10:51;;;;;;;8.65;4.82;;;5.20;61.60;;;3.41;68.15;97121.97;4951452;28;20035;-65
2022/01/29 10:13:37;;;;;;;7.47;4.57;;;5.10;61.40;;;3.36;68.28;97124.91;4921486;29;20252;-66
2022/01/29 10:16:20;;;;;;;6.38;4.43;;;5.10;61.40;;;3.36;68.54;97117.13;4915978;29;20035;-66
2022/01/29 10:19:00;;;;;;;5.82;4.40;;;5.10;62.10;;;3.33;68.99;97117.34;4961224;28;20027;-66
2022/01/29 10:21:37;;;;;;;7.82;5.00;;;5.00;61.60;;;3.31;68.19;97114.03;4965947;28;20039;-65
2022/01/29 10:24:11;;;;;;;5.38;4.03;;;5.00;61.20;;;3.31;67.24;97111.44;4936964;28;20031;-66
2022/01/29 10:26:39;;;;;;;6.82;3.83;;;5.00;61.10;;;3.28;67.77;97104.72;4932708;28;20040;-66
2022/01/29 10:29:07;;;;;;;5.28;3.60;;;5.00;60.80;;;3.28;67.36;97101.28;4932741;29;20115;-65
2022/01/29 10:31:50;;;;;;;4.82;3.67;;;5.00;60.20;;;3.30;66.46;97104.59;4950354;28;20548;-65
2022/01/29 10:34:28;;;;;;;13.55;9.20;;;5.10;60.10;;;3.32;67.54;97093.13;4934726;28;20039;-65
2022/01/29 10:37:25;;;;;;;6.63;4.00;;;5.10;60.40;;;3.38;66.47;97091.81;4934593;28;20039;-66